sensor_id;sensor_type;location;lat;lon;timestamp;temperature;humidity
3994;DHT22;2011;48.238;13.948;2023-03-26T00:00:22;8.60;99.90
3994;DHT22;2011;48.238;13.948;2023-03-26T00:02:50;8.60;99.90
3994;DHT22;2011;48.238;13.948;2023-03-26T00:05:16;8.60;99.90
3994;DHT22;2011;48.238;13.948;2023-03-26T00:07:44;8.60;99.90
3994;DHT22;2011;48.238;13.948;2023-03-26T00:10:11;8.70;99.90
3994;DHT22;2011;48.238;13.948;2023-03-26T00:12:40;8.70;99.90
3994;DHT22;2011;48.238;13.948;2023-03-26T00:15:08;8.70;99.90
3994;DHT22;2011;48.238;13.948;2023-03-26T00:17:36;8.70;99.90
3994;DHT22;2011;48.238;13.948;2023-03-26T00:20:04;8.80;99.90
3994;DHT22;2011;48.238;13.948;2023-03-26T00:22:32;8.80;99.90
3994;DHT22;2011;48.238;13.948;2023-03-26T00:24:59;8.80;99.90
3994;DHT22;2011;48.238;13.948;2023-03-26T00:27:26;8.80;99.90
3994;DHT22;2011;48.238;13.948;2023-03-26T00:29:53;8.80;99.90
3994;DHT22;2011;48.238;13.948;2023-03-26T00:32:21;8.80;99.90
3994;DHT22;2011;48.238;13.948;2023-03-26T00:34:53;8.80;99.90
3994;DHT22;2011;48.238;13.948;2023-03-26T00:37:21;8.80;99.90
3994;DHT22;2011;48.238;13.948;2023-03-26T00:39:51;8.80;99.90
3994;DHT22;2011;48.238;13.948;2023-03-26T00:42:18;8.90;99.90
3994;DHT22;2011;48.238;13.948;2023-03-26T00:44:45;8.90;99.90
3994;DHT22;2011;48.238;13.948;2023-03-26T00:47:12;8.90;99.90
3994;DHT22;2011;48.238;13.948;2023-03-26T00:49:39;8.90;99.90
3994;DHT22;2011;48.238;13.948;2023-03-26T00:52:07;8.90;99.90
3994;DHT22;2011;48.238;13.948;2023-03-26T00:54:34;8.90;99.90
3994;DHT22;2011;48.238;13.948;2023-03-26T00:57:01;8.90;99.90
3994;DHT22;2011;48.238;13.948;2023-03-26T00:59:31;8.90;99.90
3994;DHT22;2011;48.238;13.948;2023-03-26T01:02:00;8.90;99.90
3994;DHT22;2011;48.238;13.948;2023-03-26T01:04:30;8.90;99.90
3994;DHT22;2011;48.238;13.948;2023-03-26T01:07:01;8.90;99.90
3994;DHT22;2011;48.238;13.948;2023-03-26T01:09:34;8.90;99.90
3994;DHT22;2011;48.238;13.948;2023-03-26T01:12:03;8.90;99.90
3994;DHT22;2011;48.238;13.948;2023-03-26T01:14:31;8.90;99.90
3994;DHT22;2011;48.238;13.948;2023-03-26T01:17:00;8.90;99.90
3994;DHT22;2011;48.238;13.948;2023-03-26T01:19:30;8.90;99.90
3994;DHT22;2011;48.238;13.948;2023-03-26T01:22:03;8.90;99.90
3994;DHT22;2011;48.238;13.948;2023-03-26T01:24:32;8.80;99.90
3994;DHT22;2011;48.238;13.948;2023-03-26T01:27:22;8.80;99.90
3994;DHT22;2011;48.238;13.948;2023-03-26T01:29:55;8.80;99.90
3994;DHT22;2011;48.238;13.948;2023-03-26T01:32:34;8.90;99.90
3994;DHT22;2011;48.238;13.948;2023-03-26T01:35:23;8.90;99.90
3994;DHT22;2011;48.238;13.948;2023-03-26T01:38:05;8.90;99.90
3994;DHT22;2011;48.238;13.948;2023-03-26T01:40:41;8.80;99.90
3994;DHT22;2011;48.238;13.948;2023-03-26T01:43:16;8.80;99.90
3994;DHT22;2011;48.238;13.948;2023-03-26T01:45:47;8.80;99.90
3994;DHT22;2011;48.238;13.948;2023-03-26T01:48:15;8.80;99.90
3994;DHT22;2011;48.238;13.948;2023-03-26T01:50:43;8.80;99.90
3994;DHT22;2011;48.238;13.948;2023-03-26T01:53:11;8.80;99.90
3994;DHT22;2011;48.238;13.948;2023-03-26T01:55:46;8.80;99.90
3994;DHT22;2011;48.238;13.948;2023-03-26T01:58:26;8.80;99.90
3994;DHT22;2011;48.238;13.948;2023-03-26T02:01:01;8.90;99.90
3994;DHT22;2011;48.238;13.948;2023-03-26T02:03:35;8.90;99.90
3994;DHT22;2011;48.238;13.948;2023-03-26T02:06:08;8.80;99.90
3994;DHT22;2011;48.238;13.948;2023-03-26T02:08:43;8.80;99.90
3994;DHT22;2011;48.238;13.948;2023-03-26T02:11:13;8.80;99.90
3994;DHT22;2011;48.238;13.948;2023-03-26T02:13:42;8.80;99.90
3994;DHT22;2011;48.238;13.948;2023-03-26T02:16:11;8.80;99.90
3994;DHT22;2011;48.238;13.948;2023-03-26T02:18:41;8.80;99.90
3994;DHT22;2011;48.238;13.948;2023-03-26T02:21:12;8.70;99.90
3994;DHT22;2011;48.238;13.948;2023-03-26T02:23:41;8.80;99.90
3994;DHT22;2011;48.238;13.948;2023-03-26T02:26:13;8.70;99.90
3994;DHT22;2011;48.238;13.948;2023-03-26T02:28:40;8.70;99.90
3994;DHT22;2011;48.238;13.948;2023-03-26T02:31:07;8.70;99.90
3994;DHT22;2011;48.238;13.948;2023-03-26T02:33:36;8.80;99.90
3994;DHT22;2011;48.238;13.948;2023-03-26T02:36:05;8.70;99.90
3994;DHT22;2011;48.238;13.948;2023-03-26T02:38:33;8.70;99.90
3994;DHT22;2011;48.238;13.948;2023-03-26T02:41:00;8.80;99.90
3994;DHT22;2011;48.238;13.948;2023-03-26T02:43:29;8.80;99.90
3994;DHT22;2011;48.238;13.948;2023-03-26T02:45:56;8.80;99.90
3994;DHT22;2011;48.238;13.948;2023-03-26T02:48:23;8.80;99.90
3994;DHT22;2011;48.238;13.948;2023-03-26T02:50:50;8.80;99.90
3994;DHT22;2011;48.238;13.948;2023-03-26T02:53:18;8.80;99.90
3994;DHT22;2011;48.238;13.948;2023-03-26T02:55:46;8.80;99.90
3994;DHT22;2011;48.238;13.948;2023-03-26T02:58:13;8.90;99.90
3994;DHT22;2011;48.238;13.948;2023-03-26T03:00:43;8.90;99.90
3994;DHT22;2011;48.238;13.948;2023-03-26T03:03:11;8.90;99.90
3994;DHT22;2011;48.238;13.948;2023-03-26T03:05:38;8.90;99.90
3994;DHT22;2011;48.238;13.948;2023-03-26T03:08:07;8.90;99.90
3994;DHT22;2011;48.238;13.948;2023-03-26T03:10:35;8.90;99.90
3994;DHT22;2011;48.238;13.948;2023-03-26T03:13:02;8.80;99.90
3994;DHT22;2011;48.238;13.948;2023-03-26T03:15:32;8.80;99.90
3994;DHT22;2011;48.238;13.948;2023-03-26T03:18:00;8.80;99.90
3994;DHT22;2011;48.238;13.948;2023-03-26T03:20:28;8.90;99.90
3994;DHT22;2011;48.238;13.948;2023-03-26T03:22:55;8.80;99.90
3994;DHT22;2011;48.238;13.948;2023-03-26T03:25:22;8.80;99.90
3994;DHT22;2011;48.238;13.948;2023-03-26T03:27:50;8.70;99.90
3994;DHT22;2011;48.238;13.948;2023-03-26T03:30:18;8.70;99.90
3994;DHT22;2011;48.238;13.948;2023-03-26T03:32:45;8.70;99.90
3994;DHT22;2011;48.238;13.948;2023-03-26T03:35:14;8.70;99.90
3994;DHT22;2011;48.238;13.948;2023-03-26T03:37:40;8.70;99.90
3994;DHT22;2011;48.238;13.948;2023-03-26T03:40:08;8.70;99.90
3994;DHT22;2011;48.238;13.948;2023-03-26T03:42:36;8.70;99.90
3994;DHT22;2011;48.238;13.948;2023-03-26T03:45:03;8.70;99.90
3994;DHT22;2011;48.238;13.948;2023-03-26T03:47:31;8.70;99.90
3994;DHT22;2011;48.238;13.948;2023-03-26T03:49:58;8.60;99.90
3994;DHT22;2011;48.238;13.948;2023-03-26T03:52:27;8.60;99.90
3994;DHT22;2011;48.238;13.948;2023-03-26T03:54:54;8.60;99.90
3994;DHT22;2011;48.238;13.948;2023-03-26T03:57:22;8.50;99.90
3994;DHT22;2011;48.238;13.948;2023-03-26T03:59:49;8.50;99.90
3994;DHT22;2011;48.238;13.948;2023-03-26T04:02:16;8.50;99.90
3994;DHT22;2011;48.238;13.948;2023-03-26T04:04:50;8.50;99.90
3994;DHT22;2011;48.238;13.948;2023-03-26T04:07:17;8.40;99.90
3994;DHT22;2011;48.238;13.948;2023-03-26T04:09:45;8.40;99.90
3994;DHT22;2011;48.238;13.948;2023-03-26T04:12:12;8.40;99.90
3994;DHT22;2011;48.238;13.948;2023-03-26T04:14:39;8.30;99.90
3994;DHT22;2011;48.238;13.948;2023-03-26T04:17:06;8.30;99.90
3994;DHT22;2011;48.238;13.948;2023-03-26T04:19:33;8.20;99.90
3994;DHT22;2011;48.238;13.948;2023-03-26T04:22:01;8.20;99.90
3994;DHT22;2011;48.238;13.948;2023-03-26T04:24:28;8.20;99.90
3994;DHT22;2011;48.238;13.948;2023-03-26T04:26:57;8.20;99.90
3994;DHT22;2011;48.238;13.948;2023-03-26T04:29:25;8.20;99.90
3994;DHT22;2011;48.238;13.948;2023-03-26T04:31:55;8.10;99.90
3994;DHT22;2011;48.238;13.948;2023-03-26T04:34:31;8.10;99.90
3994;DHT22;2011;48.238;13.948;2023-03-26T04:37:00;8.10;99.90
3994;DHT22;2011;48.238;13.948;2023-03-26T04:39:28;8.10;99.90
3994;DHT22;2011;48.238;13.948;2023-03-26T04:41:56;8.00;99.90
3994;DHT22;2011;48.238;13.948;2023-03-26T04:44:23;8.00;99.90
3994;DHT22;2011;48.238;13.948;2023-03-26T04:46:50;8.00;99.90
3994;DHT22;2011;48.238;13.948;2023-03-26T04:49:19;8.00;99.90
3994;DHT22;2011;48.238;13.948;2023-03-26T04:51:46;7.90;99.90
3994;DHT22;2011;48.238;13.948;2023-03-26T04:54:15;7.90;99.90
3994;DHT22;2011;48.238;13.948;2023-03-26T04:56:49;7.90;99.90
3994;DHT22;2011;48.238;13.948;2023-03-26T04:59:22;7.90;99.90
3994;DHT22;2011;48.238;13.948;2023-03-26T05:01:51;7.90;99.90
3994;DHT22;2011;48.238;13.948;2023-03-26T05:04:17;7.90;99.90
3994;DHT22;2011;48.238;13.948;2023-03-26T05:06:44;7.90;99.90
3994;DHT22;2011;48.238;13.948;2023-03-26T05:09:11;7.90;99.90
3994;DHT22;2011;48.238;13.948;2023-03-26T05:11:38;7.90;99.90
3994;DHT22;2011;48.238;13.948;2023-03-26T05:14:05;8.00;99.90
3994;DHT22;2011;48.238;13.948;2023-03-26T05:16:34;8.00;99.90
3994;DHT22;2011;48.238;13.948;2023-03-26T05:19:01;8.00;99.90
3994;DHT22;2011;48.238;13.948;2023-03-26T05:21:28;8.00;99.90
3994;DHT22;2011;48.238;13.948;2023-03-26T05:23:55;8.00;99.90
3994;DHT22;2011;48.238;13.948;2023-03-26T05:26:22;8.00;99.90
3994;DHT22;2011;48.238;13.948;2023-03-26T05:28:49;8.10;99.90
3994;DHT22;2011;48.238;13.948;2023-03-26T05:31:17;8.10;99.90
3994;DHT22;2011;48.238;13.948;2023-03-26T05:33:47;8.20;99.90
3994;DHT22;2011;48.238;13.948;2023-03-26T05:36:14;8.20;99.90
3994;DHT22;2011;48.238;13.948;2023-03-26T05:38:42;8.20;99.90
3994;DHT22;2011;48.238;13.948;2023-03-26T05:41:11;8.30;99.90
3994;DHT22;2011;48.238;13.948;2023-03-26T05:43:38;8.30;99.90
3994;DHT22;2011;48.238;13.948;2023-03-26T05:46:06;8.40;99.90
3994;DHT22;2011;48.238;13.948;2023-03-26T05:48:32;8.40;99.90
3994;DHT22;2011;48.238;13.948;2023-03-26T05:51:01;8.40;99.90
3994;DHT22;2011;48.238;13.948;2023-03-26T05:53:28;8.50;99.90
3994;DHT22;2011;48.238;13.948;2023-03-26T05:55:55;8.50;99.90
3994;DHT22;2011;48.238;13.948;2023-03-26T05:58:23;8.50;99.90
3994;DHT22;2011;48.238;13.948;2023-03-26T06:00:56;8.50;99.90
3994;DHT22;2011;48.238;13.948;2023-03-26T06:03:24;8.50;99.90
3994;DHT22;2011;48.238;13.948;2023-03-26T06:05:51;8.60;99.90
3994;DHT22;2011;48.238;13.948;2023-03-26T06:08:20;8.60;99.90
3994;DHT22;2011;48.238;13.948;2023-03-26T06:10:47;8.60;99.90
3994;DHT22;2011;48.238;13.948;2023-03-26T06:13:15;8.70;99.90
3994;DHT22;2011;48.238;13.948;2023-03-26T06:15:43;8.70;99.90
3994;DHT22;2011;48.238;13.948;2023-03-26T06:18:10;8.80;99.90
3994;DHT22;2011;48.238;13.948;2023-03-26T06:20:39;8.70;99.90
3994;DHT22;2011;48.238;13.948;2023-03-26T06:23:06;8.80;99.90
3994;DHT22;2011;48.238;13.948;2023-03-26T06:25:35;8.80;99.90
3994;DHT22;2011;48.238;13.948;2023-03-26T06:28:02;8.90;99.90
3994;DHT22;2011;48.238;13.948;2023-03-26T06:30:30;8.90;99.90
3994;DHT22;2011;48.238;13.948;2023-03-26T06:32:57;9.00;99.90
3994;DHT22;2011;48.238;13.948;2023-03-26T06:35:24;9.00;99.90
3994;DHT22;2011;48.238;13.948;2023-03-26T06:37:51;9.10;99.90
3994;DHT22;2011;48.238;13.948;2023-03-26T06:40:18;9.10;99.90
3994;DHT22;2011;48.238;13.948;2023-03-26T06:42:46;9.10;99.90
3994;DHT22;2011;48.238;13.948;2023-03-26T06:45:13;9.20;99.90
3994;DHT22;2011;48.238;13.948;2023-03-26T06:47:40;9.20;99.90
3994;DHT22;2011;48.238;13.948;2023-03-26T06:50:08;9.30;99.90
3994;DHT22;2011;48.238;13.948;2023-03-26T06:52:36;9.40;99.90
3994;DHT22;2011;48.238;13.948;2023-03-26T06:55:03;9.70;99.90
3994;DHT22;2011;48.238;13.948;2023-03-26T06:57:31;9.90;99.90
3994;DHT22;2011;48.238;13.948;2023-03-26T06:59:59;10.10;99.90
3994;DHT22;2011;48.238;13.948;2023-03-26T07:02:26;10.20;99.90
3994;DHT22;2011;48.238;13.948;2023-03-26T07:04:53;10.30;99.90
3994;DHT22;2011;48.238;13.948;2023-03-26T07:07:20;10.40;99.90
3994;DHT22;2011;48.238;13.948;2023-03-26T07:09:49;10.50;99.90
3994;DHT22;2011;48.238;13.948;2023-03-26T07:12:16;10.60;99.90
3994;DHT22;2011;48.238;13.948;2023-03-26T07:14:43;10.70;99.90
3994;DHT22;2011;48.238;13.948;2023-03-26T07:17:11;10.70;99.90
3994;DHT22;2011;48.238;13.948;2023-03-26T07:19:38;10.70;99.90
3994;DHT22;2011;48.238;13.948;2023-03-26T07:22:05;10.70;99.90
3994;DHT22;2011;48.238;13.948;2023-03-26T07:24:32;10.70;99.90
3994;DHT22;2011;48.238;13.948;2023-03-26T07:27:02;10.70;99.90
3994;DHT22;2011;48.238;13.948;2023-03-26T07:29:34;10.60;99.90
3994;DHT22;2011;48.238;13.948;2023-03-26T07:32:10;10.70;99.90
3994;DHT22;2011;48.238;13.948;2023-03-26T07:34:48;10.80;99.90
3994;DHT22;2011;48.238;13.948;2023-03-26T07:37:27;10.90;99.90
3994;DHT22;2011;48.238;13.948;2023-03-26T07:40:00;10.90;99.90
3994;DHT22;2011;48.238;13.948;2023-03-26T07:42:38;11.00;99.90
3994;DHT22;2011;48.238;13.948;2023-03-26T07:45:15;11.10;99.90
3994;DHT22;2011;48.238;13.948;2023-03-26T07:47:44;11.10;99.90
3994;DHT22;2011;48.238;13.948;2023-03-26T07:50:17;11.10;99.90
3994;DHT22;2011;48.238;13.948;2023-03-26T07:52:44;11.10;99.90
3994;DHT22;2011;48.238;13.948;2023-03-26T07:55:13;11.20;99.90
3994;DHT22;2011;48.238;13.948;2023-03-26T07:57:47;11.30;99.90
3994;DHT22;2011;48.238;13.948;2023-03-26T08:00:20;11.30;99.90
3994;DHT22;2011;48.238;13.948;2023-03-26T08:03:12;11.30;99.90
3994;DHT22;2011;48.238;13.948;2023-03-26T08:05:51;11.20;99.70
3994;DHT22;2011;48.238;13.948;2023-03-26T08:08:26;11.30;99.90
3994;DHT22;2011;48.238;13.948;2023-03-26T08:11:10;11.20;99.30
3994;DHT22;2011;48.238;13.948;2023-03-26T08:13:55;11.30;99.90
3994;DHT22;2011;48.238;13.948;2023-03-26T08:16:28;11.50;99.70
3994;DHT22;2011;48.238;13.948;2023-03-26T08:19:02;11.60;99.90
3994;DHT22;2011;48.238;13.948;2023-03-26T08:21:36;11.70;99.20
3994;DHT22;2011;48.238;13.948;2023-03-26T08:24:10;11.90;99.40
3994;DHT22;2011;48.238;13.948;2023-03-26T08:26:43;11.80;98.60
3994;DHT22;2011;48.238;13.948;2023-03-26T08:29:19;11.80;98.60
3994;DHT22;2011;48.238;13.948;2023-03-26T08:31:47;11.90;99.10
3994;DHT22;2011;48.238;13.948;2023-03-26T08:34:15;12.00;98.80
3994;DHT22;2011;48.238;13.948;2023-03-26T08:36:43;11.90;97.80
3994;DHT22;2011;48.238;13.948;2023-03-26T08:39:10;12.00;98.50
3994;DHT22;2011;48.238;13.948;2023-03-26T08:42:05;12.10;98.40
3994;DHT22;2011;48.238;13.948;2023-03-26T08:45:11;12.30;97.50
3994;DHT22;2011;48.238;13.948;2023-03-26T08:48:05;12.40;97.50
3994;DHT22;2011;48.238;13.948;2023-03-26T08:54:09;12.60;97.50
3994;DHT22;2011;48.238;13.948;2023-03-26T08:56:48;12.80;96.60
3994;DHT22;2011;48.238;13.948;2023-03-26T08:59:55;12.80;96.10
3994;DHT22;2011;48.238;13.948;2023-03-26T09:02:37;12.80;96.00
3994;DHT22;2011;48.238;13.948;2023-03-26T09:11:40;13.10;95.50
3994;DHT22;2011;48.238;13.948;2023-03-26T09:20:47;13.00;94.10
3994;DHT22;2011;48.238;13.948;2023-03-26T09:26:25;13.30;93.50
3994;DHT22;2011;48.238;13.948;2023-03-26T09:35:12;13.70;93.80
3994;DHT22;2011;48.238;13.948;2023-03-26T09:37:53;13.90;94.10
3994;DHT22;2011;48.238;13.948;2023-03-26T09:40:27;13.90;93.10
3994;DHT22;2011;48.238;13.948;2023-03-26T09:43:14;14.00;93.30
3994;DHT22;2011;48.238;13.948;2023-03-26T09:45:54;14.00;92.20
3994;DHT22;2011;48.238;13.948;2023-03-26T09:48:55;14.10;92.00
3994;DHT22;2011;48.238;13.948;2023-03-26T09:51:51;14.10;91.80
3994;DHT22;2011;48.238;13.948;2023-03-26T09:54:49;14.20;92.30
3994;DHT22;2011;48.238;13.948;2023-03-26T09:57:27;14.10;91.90
3994;DHT22;2011;48.238;13.948;2023-03-26T10:00:19;14.10;91.40
3994;DHT22;2011;48.238;13.948;2023-03-26T10:03:03;14.10;92.10
3994;DHT22;2011;48.238;13.948;2023-03-26T10:05:46;14.10;92.00
3994;DHT22;2011;48.238;13.948;2023-03-26T10:08:34;14.10;91.80
3994;DHT22;2011;48.238;13.948;2023-03-26T10:11:09;14.10;91.80
3994;DHT22;2011;48.238;13.948;2023-03-26T10:13:51;14.10;91.50
3994;DHT22;2011;48.238;13.948;2023-03-26T10:16:27;14.20;91.70
3994;DHT22;2011;48.238;13.948;2023-03-26T10:19:07;14.20;91.70
3994;DHT22;2011;48.238;13.948;2023-03-26T10:21:43;14.20;91.20
3994;DHT22;2011;48.238;13.948;2023-03-26T10:24:38;14.10;91.10
3994;DHT22;2011;48.238;13.948;2023-03-26T10:27:21;14.10;91.10
3994;DHT22;2011;48.238;13.948;2023-03-26T10:30:14;14.10;91.10
3994;DHT22;2011;48.238;13.948;2023-03-26T10:32:52;14.10;90.80
3994;DHT22;2011;48.238;13.948;2023-03-26T10:35:33;14.00;90.80
3994;DHT22;2011;48.238;13.948;2023-03-26T10:38:15;14.00;90.20
3994;DHT22;2011;48.238;13.948;2023-03-26T10:40:53;14.00;87.80
3994;DHT22;2011;48.238;13.948;2023-03-26T10:43:54;14.00;86.10
3994;DHT22;2011;48.238;13.948;2023-03-26T10:46:42;14.00;86.30
3994;DHT22;2011;48.238;13.948;2023-03-26T10:52:16;14.30;88.90
3994;DHT22;2011;48.238;13.948;2023-03-26T10:54:52;14.30;87.60
3994;DHT22;2011;48.238;13.948;2023-03-26T10:57:32;14.40;88.40
3994;DHT22;2011;48.238;13.948;2023-03-26T11:00:13;14.50;87.60
3994;DHT22;2011;48.238;13.948;2023-03-26T11:02:45;14.50;88.90
3994;DHT22;2011;48.238;13.948;2023-03-26T11:05:32;14.50;89.20
3994;DHT22;2011;48.238;13.948;2023-03-26T11:08:10;14.50;86.80
3994;DHT22;2011;48.238;13.948;2023-03-26T11:10:47;14.60;88.30
3994;DHT22;2011;48.238;13.948;2023-03-26T11:13:21;14.60;86.70
3994;DHT22;2011;48.238;13.948;2023-03-26T11:15:54;14.70;85.80
3994;DHT22;2011;48.238;13.948;2023-03-26T11:18:27;14.60;85.00
3994;DHT22;2011;48.238;13.948;2023-03-26T11:21:06;14.50;83.20
3994;DHT22;2011;48.238;13.948;2023-03-26T11:23:35;14.40;83.90
3994;DHT22;2011;48.238;13.948;2023-03-26T11:26:09;14.30;83.20
3994;DHT22;2011;48.238;13.948;2023-03-26T11:29:08;14.10;81.50
3994;DHT22;2011;48.238;13.948;2023-03-26T11:31:47;14.10;84.30
3994;DHT22;2011;48.238;13.948;2023-03-26T11:34:20;14.10;84.70
3994;DHT22;2011;48.238;13.948;2023-03-26T11:36:51;14.00;84.30
3994;DHT22;2011;48.238;13.948;2023-03-26T11:39:22;13.80;84.10
3994;DHT22;2011;48.238;13.948;2023-03-26T11:41:54;13.60;85.00
3994;DHT22;2011;48.238;13.948;2023-03-26T11:44:27;13.50;85.10
3994;DHT22;2011;48.238;13.948;2023-03-26T11:46:57;13.40;86.00
3994;DHT22;2011;48.238;13.948;2023-03-26T11:49:28;13.30;86.10
3994;DHT22;2011;48.238;13.948;2023-03-26T11:51:57;13.20;87.70
3994;DHT22;2011;48.238;13.948;2023-03-26T11:54:26;13.10;86.90
3994;DHT22;2011;48.238;13.948;2023-03-26T11:56:55;13.00;86.30
3994;DHT22;2011;48.238;13.948;2023-03-26T11:59:26;12.90;87.50
3994;DHT22;2011;48.238;13.948;2023-03-26T12:01:56;13.00;86.80
3994;DHT22;2011;48.238;13.948;2023-03-26T12:04:25;13.10;85.90
3994;DHT22;2011;48.238;13.948;2023-03-26T12:06:55;13.30;86.50
3994;DHT22;2011;48.238;13.948;2023-03-26T12:09:24;13.40;86.10
3994;DHT22;2011;48.238;13.948;2023-03-26T12:11:53;13.50;86.20
3994;DHT22;2011;48.238;13.948;2023-03-26T12:14:26;13.60;86.20
3994;DHT22;2011;48.238;13.948;2023-03-26T12:16:59;13.60;85.80
3994;DHT22;2011;48.238;13.948;2023-03-26T12:19:26;13.60;86.90
3994;DHT22;2011;48.238;13.948;2023-03-26T12:21:59;13.60;86.90
3994;DHT22;2011;48.238;13.948;2023-03-26T12:24:30;13.50;86.70
3994;DHT22;2011;48.238;13.948;2023-03-26T12:26:58;13.50;85.00
3994;DHT22;2011;48.238;13.948;2023-03-26T12:29:27;13.40;84.60
3994;DHT22;2011;48.238;13.948;2023-03-26T12:32:04;13.40;84.90
3994;DHT22;2011;48.238;13.948;2023-03-26T12:34:33;13.40;86.00
3994;DHT22;2011;48.238;13.948;2023-03-26T12:37:02;13.40;85.60
3994;DHT22;2011;48.238;13.948;2023-03-26T12:39:34;13.40;85.00
3994;DHT22;2011;48.238;13.948;2023-03-26T12:42:04;13.50;86.30
3994;DHT22;2011;48.238;13.948;2023-03-26T12:44:34;13.50;86.00
3994;DHT22;2011;48.238;13.948;2023-03-26T12:47:24;13.50;86.60
3994;DHT22;2011;48.238;13.948;2023-03-26T12:49:52;13.60;85.10
3994;DHT22;2011;48.238;13.948;2023-03-26T12:52:38;13.70;85.30
3994;DHT22;2011;48.238;13.948;2023-03-26T12:55:21;13.80;87.40
3994;DHT22;2011;48.238;13.948;2023-03-26T12:58:04;13.90;85.90
3994;DHT22;2011;48.238;13.948;2023-03-26T13:00:44;13.90;85.90
3994;DHT22;2011;48.238;13.948;2023-03-26T13:03:31;13.80;84.20
3994;DHT22;2011;48.238;13.948;2023-03-26T13:06:14;13.70;84.40
3994;DHT22;2011;48.238;13.948;2023-03-26T13:09:11;13.70;85.50
3994;DHT22;2011;48.238;13.948;2023-03-26T13:11:51;13.60;86.70
3994;DHT22;2011;48.238;13.948;2023-03-26T13:14:41;13.60;88.30
3994;DHT22;2011;48.238;13.948;2023-03-26T13:17:16;13.40;88.90
3994;DHT22;2011;48.238;13.948;2023-03-26T13:19:53;13.10;90.20
3994;DHT22;2011;48.238;13.948;2023-03-26T13:22:31;12.70;91.30
3994;DHT22;2011;48.238;13.948;2023-03-26T13:25:05;12.40;91.70
3994;DHT22;2011;48.238;13.948;2023-03-26T13:27:44;12.20;92.80
3994;DHT22;2011;48.238;13.948;2023-03-26T13:30:21;12.00;92.70
3994;DHT22;2011;48.238;13.948;2023-03-26T13:33:03;11.90;93.50
3994;DHT22;2011;48.238;13.948;2023-03-26T13:35:37;11.90;94.30
3994;DHT22;2011;48.238;13.948;2023-03-26T13:38:09;11.80;93.90
3994;DHT22;2011;48.238;13.948;2023-03-26T13:40:47;11.80;94.40
3994;DHT22;2011;48.238;13.948;2023-03-26T13:43:27;11.90;94.80
3994;DHT22;2011;48.238;13.948;2023-03-26T13:46:00;12.00;95.20
3994;DHT22;2011;48.238;13.948;2023-03-26T13:48:36;12.10;95.40
3994;DHT22;2011;48.238;13.948;2023-03-26T13:51:08;12.00;95.40
3994;DHT22;2011;48.238;13.948;2023-03-26T13:53:40;11.90;95.40
3994;DHT22;2011;48.238;13.948;2023-03-26T13:56:13;11.90;95.70
3994;DHT22;2011;48.238;13.948;2023-03-26T13:58:45;11.70;96.40
3994;DHT22;2011;48.238;13.948;2023-03-26T14:01:14;11.80;96.90
3994;DHT22;2011;48.238;13.948;2023-03-26T14:03:49;11.70;97.30
3994;DHT22;2011;48.238;13.948;2023-03-26T14:06:29;11.60;98.30
3994;DHT22;2011;48.238;13.948;2023-03-26T14:09:02;11.50;98.50
3994;DHT22;2011;48.238;13.948;2023-03-26T14:11:41;11.40;99.10
3994;DHT22;2011;48.238;13.948;2023-03-26T14:14:13;11.40;99.40
3994;DHT22;2011;48.238;13.948;2023-03-26T14:16:47;11.30;99.10
3994;DHT22;2011;48.238;13.948;2023-03-26T14:19:39;11.20;99.20
3994;DHT22;2011;48.238;13.948;2023-03-26T14:22:26;11.20;99.70
3994;DHT22;2011;48.238;13.948;2023-03-26T14:25:07;11.30;99.90
3994;DHT22;2011;48.238;13.948;2023-03-26T14:27:50;11.30;99.90
3994;DHT22;2011;48.238;13.948;2023-03-26T14:30:56;11.30;99.90
3994;DHT22;2011;48.238;13.948;2023-03-26T14:33:51;11.20;99.90
3994;DHT22;2011;48.238;13.948;2023-03-26T14:36:28;11.20;99.90
3994;DHT22;2011;48.238;13.948;2023-03-26T14:39:26;11.20;99.90
3994;DHT22;2011;48.238;13.948;2023-03-26T14:42:00;11.10;99.90
3994;DHT22;2011;48.238;13.948;2023-03-26T14:44:57;11.00;99.90
3994;DHT22;2011;48.238;13.948;2023-03-26T14:47:29;11.00;99.90
3994;DHT22;2011;48.238;13.948;2023-03-26T14:50:35;11.10;99.90
3994;DHT22;2011;48.238;13.948;2023-03-26T14:53:13;11.10;99.90
3994;DHT22;2011;48.238;13.948;2023-03-26T15:02:00;11.10;99.90
3994;DHT22;2011;48.238;13.948;2023-03-26T15:05:01;11.10;99.90
3994;DHT22;2011;48.238;13.948;2023-03-26T15:13:54;11.10;99.90
3994;DHT22;2011;48.238;13.948;2023-03-26T15:20:19;11.30;99.90
3994;DHT22;2011;48.238;13.948;2023-03-26T15:23:17;11.30;99.90
3994;DHT22;2011;48.238;13.948;2023-03-26T15:29:02;11.30;99.90
3994;DHT22;2011;48.238;13.948;2023-03-26T15:31:58;11.20;99.90
3994;DHT22;2011;48.238;13.948;2023-03-26T15:34:57;11.20;99.90
3994;DHT22;2011;48.238;13.948;2023-03-26T15:38:04;11.20;99.90
3994;DHT22;2011;48.238;13.948;2023-03-26T15:40:43;11.30;99.90
3994;DHT22;2011;48.238;13.948;2023-03-26T15:43:13;11.30;99.90
3994;DHT22;2011;48.238;13.948;2023-03-26T15:45:43;11.30;99.90
3994;DHT22;2011;48.238;13.948;2023-03-26T15:48:44;11.30;99.90
3994;DHT22;2011;48.238;13.948;2023-03-26T15:51:27;11.30;99.90
3994;DHT22;2011;48.238;13.948;2023-03-26T15:54:03;11.30;99.90
3994;DHT22;2011;48.238;13.948;2023-03-26T15:56:51;11.20;99.90
3994;DHT22;2011;48.238;13.948;2023-03-26T15:59:30;11.20;99.90
3994;DHT22;2011;48.238;13.948;2023-03-26T16:02:01;11.20;99.90
3994;DHT22;2011;48.238;13.948;2023-03-26T16:04:43;11.20;99.90
3994;DHT22;2011;48.238;13.948;2023-03-26T16:07:33;11.10;99.90
3994;DHT22;2011;48.238;13.948;2023-03-26T16:10:18;11.00;99.90
3994;DHT22;2011;48.238;13.948;2023-03-26T16:12:54;10.90;99.60
3994;DHT22;2011;48.238;13.948;2023-03-26T16:15:28;10.80;99.90
3994;DHT22;2011;48.238;13.948;2023-03-26T16:18:24;10.80;99.90
3994;DHT22;2011;48.238;13.948;2023-03-26T16:20:52;10.80;99.60
3994;DHT22;2011;48.238;13.948;2023-03-26T16:23:24;10.70;98.70
3994;DHT22;2011;48.238;13.948;2023-03-26T16:26:07;10.60;98.40
3994;DHT22;2011;48.238;13.948;2023-03-26T16:29:04;10.60;98.60
3994;DHT22;2011;48.238;13.948;2023-03-26T16:32:03;10.60;98.60
3994;DHT22;2011;48.238;13.948;2023-03-26T16:34:50;10.50;99.20
3994;DHT22;2011;48.238;13.948;2023-03-26T16:37:39;10.50;99.80
3994;DHT22;2011;48.238;13.948;2023-03-26T16:40:31;10.50;99.90
3994;DHT22;2011;48.238;13.948;2023-03-26T16:43:25;10.40;99.90
3994;DHT22;2011;48.238;13.948;2023-03-26T16:46:04;10.40;99.90
3994;DHT22;2011;48.238;13.948;2023-03-26T16:48:39;10.40;99.90
3994;DHT22;2011;48.238;13.948;2023-03-26T16:51:12;10.40;99.90
3994;DHT22;2011;48.238;13.948;2023-03-26T16:53:49;10.40;99.90
3994;DHT22;2011;48.238;13.948;2023-03-26T16:56:26;10.40;99.90
3994;DHT22;2011;48.238;13.948;2023-03-26T16:59:00;10.40;99.90
3994;DHT22;2011;48.238;13.948;2023-03-26T17:01:34;10.40;99.90
3994;DHT22;2011;48.238;13.948;2023-03-26T17:04:09;10.40;99.90
3994;DHT22;2011;48.238;13.948;2023-03-26T17:07:07;10.40;99.90
3994;DHT22;2011;48.238;13.948;2023-03-26T17:09:49;10.40;99.90
3994;DHT22;2011;48.238;13.948;2023-03-26T17:12:24;10.40;99.90
3994;DHT22;2011;48.238;13.948;2023-03-26T17:15:11;10.40;99.90
3994;DHT22;2011;48.238;13.948;2023-03-26T17:17:49;10.40;99.90
3994;DHT22;2011;48.238;13.948;2023-03-26T17:20:26;10.40;99.90
3994;DHT22;2011;48.238;13.948;2023-03-26T17:23:09;10.30;99.90
3994;DHT22;2011;48.238;13.948;2023-03-26T17:25:44;10.30;99.90